메인 페이지
METAR-TAF:

METAR-TAF

공항 :

Duke Field, 플로리다, 미국

위도: 30-39N, 경도: 086-31W, 고도: 59m

현재 날씨관측

예보는 41분 전, 11:56시(UTC)에 발표되었습니다.
북북서7kt
온도 5°C
습도 87%
기압 1027 hPa
시정: 16.1km
고도 1400ft 상공 흐림

METAR: KEGI 111156Z AUTO 33007KT 10SM OVC014 05/03 A3034 RMK AO2 SLP277 T00530026 10053 20049 53010 $

시각: 06:37 (12:37 UTC)

예보

예보는 2 시간 27분 전, 10:10시(UTC)에 발표되었습니다.
예보 대상 시간: 11일 10시부터 12일 16시까지 (UTC)
북북서12kt
시정 10km 이상
고도 1500ft 상공 구름 보통
고도 1800ft 상공 흐림
일시적
11일 10시부터 11일 13시까지 (UTC)
고도 2000ft 상공 구름 많음
전환 중
11일 12시부터 11일 13시까지 (UTC)
10kt
시정 10km 이상
고도 1500ft 상공 구름 조금
고도 2000ft 상공 구름 보통
전환 중
11일 16시부터 11일 17시까지 (UTC)
여러 방향의 바람 5kt
시정: 1202m
맑음
전환 중
12일 15시부터 12일 16시까지 (UTC)
8kt
시정: 1114m
고도 3000ft 상공 구름 조금
고도 24000ft 상공 구름 보통

TAF: KEGI 111010Z 1110/1216 34012KT 9999 SCT015 OVC018 QNH3025INS TEMPO 1110/1113 BKN020 BECMG 1112/1113 36010KT 9999 FEW015 SCT020 QNH3033INS BECMG 1116/1117 32009KT 9999 SKC QNH3027INS WND VRB05KT AFT 1202 BECMG 1215/1216 09008KT 9999 FEW030 SCT240 QNH3024INS TX12/1118Z TNM01/1112Z LAST NO AMDS AFT 1110 NEXT 1114

4,000개 이상의 공항 관측 자료 및 예보 (METAR 및 TAF 보고).

지도상에서 검색 가능한 기상관측소가 노란 점과 빨간 점으로 표시되어 있습니다.

기상관측소 명을 보려면 표시 위로 마우스를 이동하세요.

날씨 관측과 예보를 보려면 클릭하세요.

지도 변경 : 확대하려면 엑스 표시가 있는 녹색 버튼, 축소하려면 빼기 표시가 있는 녹색 버튼, 다음 페이지의 지도를 보려면 녹색 화살표를 클릭하세요.


METAR-TAF: